Greenville, Virginia
Current Conditions -  °F | °C
As of 10:15 AM on Wednesday 26 Nov 2014 (Local Time) from KW13 Reporting Station
Overcast Overcast  
Wind Chill: 27°   Ceiling: 400
Heat Index: 32°   Visibility: 1mi
Dew Point: 32°   Wind: 5mph
Humidity: 99%   Direction: 350°N
Pressure: 30.01"   Gusts: NA
Location:  38°N, 79.16°W
Report Text: KW13 261515Z AUTO 35004KT 1SM OVC004 00/00 A3001 RMK AO1 T00001002
Loading
Personal Weather Stations






























Interactive Weather Map New forecast layout! Learn more

10-Day Weather Forecast

Advertisements
Track Severe Weather on mobile